Waterloo, NY (13165)

11:11 AM EST on December 09, 2016 (GMT -0500)
E Elisha St | | Change Station

Elev 463 ft 42.91 °N, 76.86 °W | Updated 47 seconds ago

Overcast
Overcast
27.2 °F
Feels Like 27 °F
N
2.0
Wind Variable Wind from ENE
Gusts 2.0 mph

Today
High -- | Low -- °F
--% Chance of Precip.
Yesterday
High -- | Low -- °F
Precip. -- in
Pressure 30.23 in
Visibility 1.5 miles
Clouds Overcast 1600 ft
Windchill 27 °F
Dew Point 20 °F
Humidity 73%
Rainfall 0.00 in
Snow Depth Not available.
7:27 AM 4:32 PM
Waxing Gibbous, 75% visible
METAR KPEO 091553Z AUTO 31013G18KT 1 1/2SM -SN OVC016 M04/M08 A3018 RMK AO2 SLP235 P0000 T10441083
Pressure 30.23 in
Visibility 1.5 miles
Clouds Overcast 1600 ft
Windchill 27 °F
Dew Point 20 °F
Humidity 73%
Rainfall 0.00 in
Snow Depth Not available.
7:27 AM 4:32 PM
Waxing Gibbous, 75% visible
METAR KPEO 091553Z AUTO 31013G18KT 1 1/2SM -SN OVC016 M04/M08 A3018 RMK AO2 SLP235 P0000 T10441083

10-Day Weather Forecast

Almanac

Astronomy

Dec. 09, 2016 Rise Set
Actual Time
Civil Twilight
Nautical Twilight
Astronomical Twilight
Moon
Length of Visible Light
Length of Day
Tomorrow will be .
, % of the Moon is Illuminated

Today's Extremes

State Highs State Lows

Community

WunderPhotos

Upload Photos

1,956,462 photos uploaded!

WunderBlog® & News

Nearby

Air Quality

  Air Quality AQ Index Pollutant
Not available.

Snow Depth

Station Depth Elevation

Earthquake Activity

City Distance Mag. Time & Date
Minimum magnitude displayed is 2.5.

Coastal Water Temperatures

Place Temperature

Stations

Nearby Weather Stations

Station Location Temp. Windchill Dew Point Humidity Wind Precip. Elev Updated Type
                   

Watches & Warnings

There are currently no watches in effect.